Sevierville, TN

8:40 AM EDT on April 27, 2017 (GMT -0400)
Douglas Dam | | Change Station

Elev 1191 ft 35.98 °N, 83.54 °W | Updated 2 seconds ago

Rain
Rain
60.6 °F
Feels Like 60.6 °F
N
2.0
Wind Variable Wind from South
Gusts 2.7 mph

Today
High -- | Low -- °F
--% Chance of Precip.
Yesterday
High -- | Low -- °F
Precip. -- in
Pressure 29.73 in
Visibility 4.0 miles
Clouds Scattered Clouds 3000 ft
Scattered Clouds 4800 ft
Overcast 8000 ft
Dew Point 60 °F
Humidity 99%
Rainfall 0.11 in
Snow Depth Not available.
6:45 AM 8:18 PM
New Moon, 2% visible
METAR KTYS 271153Z 18005KT 4SM -RA SCT030 SCT048 OVC080 17/14 A2976 RMK AO2 LTG DSNT NE-S RAB1054 TSB07E45 PRESRR SLP067 P0023 60023 70023 T01720144 10206 20172 53016
Pressure 29.73 in
Visibility 4.0 miles
Clouds Scattered Clouds 3000 ft
Scattered Clouds 4800 ft
Overcast 8000 ft
Dew Point 60 °F
Humidity 99%
Rainfall 0.11 in
Snow Depth Not available.
6:45 AM 8:18 PM
New Moon, 2% visible
METAR KTYS 271153Z 18005KT 4SM -RA SCT030 SCT048 OVC080 17/14 A2976 RMK AO2 LTG DSNT NE-S RAB1054 TSB07E45 PRESRR SLP067 P0023 60023 70023 T01720144 10206 20172 53016

Get Severe Weather Alerts

Thanks for signing up!

Be on the lookout for a verification email in your inbox.

You'll start receiving the daily forecast at 8 AM.

×

10-Day Weather Forecast

Almanac

Astronomy

Apr. 27, 2017 Rise Set
Actual Time
Civil Twilight
Nautical Twilight
Astronomical Twilight
Moon
Length of Visible Light
Length of Day
Tomorrow will be .
, % of the Moon is Illuminated

Today's Extremes

State Highs State Lows

Community

WunderPhotos

WunderBlog® & News

Nearby

Air Quality

  Air Quality AQ Index Pollutant
Not available.

Snow Depth

Station Depth Elevation

Earthquake Activity

City Distance Mag. Time & Date
Minimum magnitude displayed is 2.5.

Coastal Water Temperatures

Place Temperature

Stations

Nearby Weather Stations

Station Location Temp. Windchill Dew Point Humidity Wind Precip. Elev Updated Type
                   

Watches & Warnings

There are currently no watches in effect.